Time;durP1;ratioP1;P1;durP2;ratioP2;P2;SDS_P1;SDS_P2;PMS_P1;PMS_P2;Temp;Humidity;BMP_temperature;BMP_pressure;BME280_temperature;BME280_humidity;BME280_pressure;Samples;Min_cycle;Max_cycle;Signal;HPM_P1;HPM_P2
2021/05/01 00:01:24;;;;;;;20.23;18.23;;;;;;;;;;4994735;28;20038;-80
2021/05/01 00:04:05;;;;;;;20.98;18.95;;;;;;;;;;4998125;28;20066;-80
2021/05/01 00:06:35;;;;;;;20.65;18.55;;;;;;;;;;5015277;28;20030;-80
2021/05/01 00:09:09;;;;;;;20.52;18.60;;;;;;;;;;5014947;28;20037;-80
2021/05/01 00:11:52;;;;;;;21.00;18.80;;;;;;;;;;5013470;28;20048;-80
2021/05/01 00:14:21;;;;;;;21.35;19.27;;;;;;;;;;5014731;28;20156;-80
2021/05/01 00:16:48;;;;;;;21.95;19.67;;;;;;;;;;4982441;28;20038;-80
2021/05/01 00:19:21;;;;;;;20.98;18.85;;;;;;;;;;4980292;28;20039;-80
2021/05/01 00:21:49;;;;;;;21.73;19.50;;;;;;;;;;5019342;28;20041;-85
2021/05/01 00:25:34;;;;;;;20.20;18.00;;;;;;;;;;4978847;28;20056;-85
2021/05/01 00:28:42;;;;;;;20.30;18.30;;;;;;;;;;4996719;28;20044;-83
2021/05/01 00:31:35;;;;;;;20.67;18.58;;;;;;;;;;5017601;28;20022;-83
2021/05/01 00:34:12;;;;;;;20.98;18.80;;;;;;;;;;4956833;29;20028;-83
2021/05/01 00:37:24;;;;;;;20.65;18.55;;;;;;;;;;4944035;29;20030;-85
2021/05/01 00:40:59;;;;;;;23.30;20.92;;;;;;;;;;4959599;28;20035;-85
2021/05/01 00:49:09;;;;;;;21.60;19.40;;;;;;;;;;5012134;23;20055;-80
2021/05/01 00:51:56;;;;;;;21.63;19.42;;;;;;;;;;4994193;28;20069;-80
2021/05/01 00:54:21;;;;;;;23.85;20.77;;;;;;;;;;4993798;28;20027;-80
2021/05/01 00:56:56;;;;;;;22.45;20.15;;;;;;;;;;4977204;28;20071;-80
2021/05/01 00:59:29;;;;;;;23.38;21.00;;;;;;;;;;4978932;28;20011;-80
2021/05/01 01:02:00;;;;;;;22.35;20.13;;;;;;;;;;4994183;28;20026;-80
2021/05/01 01:04:30;;;;;;;22.98;20.48;;;;;;;;;;4994296;28;20023;-80
2021/05/01 01:06:56;;;;;;;22.27;19.92;;;;;;;;;;4994212;28;20023;-80
2021/05/01 01:09:23;;;;;;;22.67;20.38;;;;;;;;;;4994704;28;20033;-80
2021/05/01 01:11:51;;;;;;;21.95;19.70;;;;;;;;;;4994225;28;20080;-80
2021/05/01 01:14:18;;;;;;;21.77;19.58;;;;;;;;;;4993549;28;20025;-80
2021/05/01 01:16:47;;;;;;;23.08;20.58;;;;;;;;;;4994851;28;20027;-80
2021/05/01 01:19:20;;;;;;;22.67;20.33;;;;;;;;;;4995046;28;20058;-80
2021/05/01 01:21:48;;;;;;;22.63;20.20;;;;;;;;;;4994956;28;20034;-80
2021/05/01 01:24:14;;;;;;;22.73;20.35;;;;;;;;;;4977284;28;20089;-79
2021/05/01 01:26:40;;;;;;;22.98;20.67;;;;;;;;;;4994527;28;20194;-80
2021/05/01 01:29:08;;;;;;;24.75;22.27;;;;;;;;;;4994037;28;20053;-79
2021/05/01 01:31:34;;;;;;;20.45;18.52;;;;;;;;;;4956004;28;20049;-80
2021/05/01 01:34:02;;;;;;;22.35;20.10;;;;;;;;;;4994763;28;20030;-80
2021/05/01 01:36:28;;;;;;;22.35;20.20;;;;;;;;;;4977243;28;20030;-79
2021/05/01 01:38:56;;;;;;;23.83;21.23;;;;;;;;;;4993436;28;20042;-79
2021/05/01 01:41:26;;;;;;;22.90;20.50;;;;;;;;;;4994030;28;20019;-80
2021/05/01 01:44:04;;;;;;;25.70;20.98;;;;;;;;;;4994791;28;20025;-80
2021/05/01 01:46:33;;;;;;;23.63;21.13;;;;;;;;;;4993742;28;20074;-80
2021/05/01 01:49:03;;;;;;;22.23;20.02;;;;;;;;;;4977512;28;20054;-80
2021/05/01 01:51:33;;;;;;;23.27;20.98;;;;;;;;;;4994199;28;20078;-82
2021/05/01 01:53:59;;;;;;;23.33;20.98;;;;;;;;;;4993211;28;20034;-81
2021/05/01 01:56:37;;;;;;;23.60;21.13;;;;;;;;;;4976725;28;20070;-81
2021/05/01 01:59:10;;;;;;;24.05;21.65;;;;;;;;;;4995176;28;20046;-81
2021/05/01 02:01:40;;;;;;;24.98;22.35;;;;;;;;;;4978683;28;20029;-81
2021/05/01 02:04:17;;;;;;;24.02;21.63;;;;;;;;;;4978226;28;20117;-80
2021/05/01 02:06:48;;;;;;;23.60;21.23;;;;;;;;;;4962185;28;20411;-80
2021/05/01 02:09:21;;;;;;;25.90;23.08;;;;;;;;;;4994140;28;20086;-80
2021/05/01 02:11:52;;;;;;;24.40;21.85;;;;;;;;;;4994437;28;20058;-80
2021/05/01 02:14:21;;;;;;;25.88;23.00;;;;;;;;;;4994766;28;20030;-80
2021/05/01 02:16:47;;;;;;;24.45;21.92;;;;;;;;;;4994621;28;20030;-79
2021/05/01 02:19:13;;;;;;;24.52;22.05;;;;;;;;;;4993957;28;20030;-79
2021/05/01 02:21:45;;;;;;;25.33;22.63;;;;;;;;;;4994600;28;20030;-80
2021/05/01 02:24:12;;;;;;;25.95;23.35;;;;;;;;;;4977920;28;20082;-80
2021/05/01 02:26:39;;;;;;;25.95;23.25;;;;;;;;;;4995608;28;20042;-80
2021/05/01 02:29:04;;;;;;;24.38;21.88;;;;;;;;;;4981246;28;20031;-79
2021/05/01 02:31:30;;;;;;;23.55;21.17;;;;;;;;;;4981194;28;20010;-79
2021/05/01 02:34:02;;;;;;;22.73;20.38;;;;;;;;;;4983818;28;20027;-79
2021/05/01 02:36:30;;;;;;;22.50;20.20;;;;;;;;;;4985707;28;20029;-80
2021/05/01 02:38:56;;;;;;;21.42;19.33;;;;;;;;;;4974732;28;20078;-79
2021/05/01 02:41:24;;;;;;;21.48;19.35;;;;;;;;;;4958346;29;20031;-80
2021/05/01 02:43:55;;;;;;;22.65;20.30;;;;;;;;;;4974547;29;20015;-80
2021/05/01 02:46:23;;;;;;;22.35;20.05;;;;;;;;;;4974355;29;20086;-80
2021/05/01 02:48:54;;;;;;;20.30;18.38;;;;;;;;;;4959446;28;20063;-80
2021/05/01 02:51:23;;;;;;;21.17;18.98;;;;;;;;;;4969695;28;20043;-80
2021/05/01 02:53:50;;;;;;;21.88;19.67;;;;;;;;;;4978191;28;20023;-80
2021/05/01 02:56:17;;;;;;;20.73;18.63;;;;;;;;;;4978765;28;20023;-80
2021/05/01 02:58:43;;;;;;;20.17;18.17;;;;;;;;;;4979157;28;20031;-80
2021/05/01 03:01:09;;;;;;;18.92;17.02;;;;;;;;;;4978147;28;20046;-80
2021/05/01 03:03:35;;;;;;;18.42;16.70;;;;;;;;;;4978494;28;20027;-80
2021/05/01 03:06:01;;;;;;;21.02;18.95;;;;;;;;;;4978835;28;20033;-80
2021/05/01 03:08:28;;;;;;;21.15;19.02;;;;;;;;;;4967172;28;20079;-80
2021/05/01 03:11:11;;;;;;;20.95;18.85;;;;;;;;;;4942329;29;20023;-80
2021/05/01 03:13:37;;;;;;;21.20;19.17;;;;;;;;;;4958962;29;20028;-80
2021/05/01 03:16:08;;;;;;;20.17;18.27;;;;;;;;;;4942121;29;20043;-79
2021/05/01 03:18:37;;;;;;;;;;;;;;;;;;4959369;29;20063;-79
2021/05/01 03:21:06;;;;;;;20.55;18.45;;;;;;;;;;4958891;29;19895;-80
2021/05/01 03:23:32;;;;;;;22.02;19.90;;;;;;;;;;4959016;29;20011;-79
2021/05/01 03:25:58;;;;;;;21.42;19.23;;;;;;;;;;4958207;28;20027;-79
2021/05/01 03:28:28;;;;;;;22.48;20.17;;;;;;;;;;4978312;28;20022;-80
2021/05/01 03:30:53;;;;;;;21.67;19.47;;;;;;;;;;4978467;29;20034;-79
2021/05/01 03:33:21;;;;;;;22.10;19.90;;;;;;;;;;4977427;28;20023;-79
2021/05/01 03:35:51;;;;;;;23.02;20.83;;;;;;;;;;4976330;28;20031;-80
2021/05/01 03:38:18;;;;;;;23.00;20.55;;;;;;;;;;4976962;29;20058;-79
2021/05/01 03:40:43;;;;;;;21.92;19.83;;;;;;;;;;4959781;29;20028;-79
2021/05/01 03:43:10;;;;;;;21.83;19.63;;;;;;;;;;4976413;28;20376;-80
2021/05/01 03:45:37;;;;;;;22.90;20.45;;;;;;;;;;4958361;29;20027;-80
2021/05/01 03:48:15;;;;;;;23.02;20.73;;;;;;;;;;4978151;28;20051;-80
2021/05/01 03:50:48;;;;;;;23.48;21.15;;;;;;;;;;4977597;29;20023;-80
2021/05/01 03:53:15;;;;;;;25.10;22.50;;;;;;;;;;4978197;28;20030;-80
2021/05/01 03:55:43;;;;;;;23.35;21.00;;;;;;;;;;4961657;29;20400;-79
2021/05/01 03:58:08;;;;;;;23.65;21.15;;;;;;;;;;4977752;28;20035;-79
2021/05/01 04:00:37;;;;;;;23.33;20.92;;;;;;;;;;4975027;28;20034;-79
2021/05/01 04:03:02;;;;;;;24.30;21.67;;;;;;;;;;4959283;29;20019;-79
2021/05/01 04:05:28;;;;;;;24.52;21.92;;;;;;;;;;4975430;29;20078;-79
2021/05/01 04:07:53;;;;;;;25.20;22.70;;;;;;;;;;4956238;28;20033;-80
2021/05/01 04:10:19;;;;;;;26.10;23.40;;;;;;;;;;4971034;28;20042;-80
2021/05/01 04:12:46;;;;;;;28.30;25.42;;;;;;;;;;4969147;28;20538;-78
2021/05/01 04:15:12;;;;;;;28.55;25.63;;;;;;;;;;4965214;28;20031;-78
2021/05/01 04:17:37;;;;;;;28.27;25.30;;;;;;;;;;4967618;28;20038;-78
2021/05/01 04:20:04;;;;;;;27.85;24.95;;;;;;;;;;4947251;28;20065;-78
2021/05/01 04:22:30;;;;;;;28.40;25.50;;;;;;;;;;4965204;28;20034;-80
2021/05/01 04:24:55;;;;;;;28.25;25.23;;;;;;;;;;4964618;28;20023;-79
2021/05/01 04:27:21;;;;;;;27.95;25.08;;;;;;;;;;4968054;29;20038;-80
2021/05/01 04:29:46;;;;;;;30.05;26.95;;;;;;;;;;4976599;28;20033;-80
2021/05/01 04:32:12;;;;;;;28.35;25.52;;;;;;;;;;4983064;28;20484;-80
2021/05/01 04:34:37;;;;;;;29.58;26.27;;;;;;;;;;4972247;28;20023;-80
2021/05/01 04:37:05;;;;;;;29.13;25.65;;;;;;;;;;4970901;28;20023;-79
2021/05/01 04:39:30;;;;;;;27.60;24.73;;;;;;;;;;4971296;28;20038;-79
2021/05/01 04:41:57;;;;;;;29.23;26.23;;;;;;;;;;4971055;28;20027;-79
2021/05/01 04:44:26;;;;;;;28.35;25.55;;;;;;;;;;4958796;29;20026;-79
2021/05/01 04:46:56;;;;;;;27.27;24.48;;;;;;;;;;4977031;28;20027;-80
2021/05/01 04:49:24;;;;;;;30.13;26.98;;;;;;;;;;4975716;28;20074;-81
2021/05/01 04:51:51;;;;;;;28.52;25.45;;;;;;;;;;4975959;28;20031;-80
2021/05/01 04:54:17;;;;;;;28.33;25.27;;;;;;;;;;4976138;28;20047;-79
2021/05/01 04:56:43;;;;;;;28.23;25.30;;;;;;;;;;4975705;28;20023;-79
2021/05/01 04:59:09;;;;;;;27.95;25.05;;;;;;;;;;4974180;28;20058;-79
2021/05/01 05:01:38;;;;;;;27.90;24.85;;;;;;;;;;4975544;28;20023;-79
2021/05/01 05:04:04;;;;;;;27.02;24.25;;;;;;;;;;4974923;28;20023;-80
2021/05/01 05:06:29;;;;;;;28.13;25.10;;;;;;;;;;4958943;29;20091;-79
2021/05/01 05:08:59;;;;;;;27.30;24.50;;;;;;;;;;4975945;28;20054;-79
2021/05/01 05:11:26;;;;;;;28.38;25.48;;;;;;;;;;4976111;28;20020;-80
2021/05/01 05:13:58;;;;;;;28.45;25.42;;;;;;;;;;4976337;28;20019;-81
2021/05/01 05:16:36;;;;;;;29.75;26.30;;;;;;;;;;4975750;28;20031;-80
2021/05/01 05:19:17;;;;;;;31.63;28.52;;;;;;;;;;4975725;28;20031;-80
2021/05/01 05:21:47;;;;;;;27.23;24.50;;;;;;;;;;4975451;28;20023;-80
2021/05/01 05:24:16;;;;;;;25.88;23.33;;;;;;;;;;4975749;28;20110;-80
2021/05/01 05:26:44;;;;;;;25.15;22.55;;;;;;;;;;4957498;29;20045;-80
2021/05/01 05:29:12;;;;;;;32.00;28.90;;;;;;;;;;4958795;28;20057;-80
2021/05/01 05:31:39;;;;;;;25.17;22.48;;;;;;;;;;4976070;28;20027;-80
2021/05/01 05:34:10;;;;;;;26.38;23.58;;;;;;;;;;4976088;28;20032;-80
2021/05/01 05:36:36;;;;;;;24.80;22.23;;;;;;;;;;4976230;28;20003;-80
2021/05/01 05:39:05;;;;;;;24.80;22.30;;;;;;;;;;4974918;29;20035;-79
2021/05/01 05:41:34;;;;;;;24.45;21.95;;;;;;;;;;4975738;28;20104;-80
2021/05/01 05:44:04;;;;;;;24.85;22.27;;;;;;;;;;4959223;29;20055;-79
2021/05/01 05:46:31;;;;;;;24.73;22.13;;;;;;;;;;4975478;28;20023;-79
2021/05/01 05:48:58;;;;;;;27.70;24.58;;;;;;;;;;4975509;28;20027;-79
2021/05/01 05:51:24;;;;;;;24.40;21.92;;;;;;;;;;4975368;28;20023;-79
2021/05/01 05:53:50;;;;;;;23.35;21.00;;;;;;;;;;4941523;29;20079;-80
2021/05/01 05:56:27;;;;;;;24.60;22.15;;;;;;;;;;4973227;28;20046;-80
2021/05/01 05:58:57;;;;;;;24.48;21.88;;;;;;;;;;4961766;28;20017;-80
2021/05/01 06:01:31;;;;;;;23.67;21.17;;;;;;;;;;4964575;28;20039;-82
2021/05/01 06:04:00;;;;;;;24.00;21.50;;;;;;;;;;4961602;29;20058;-80
2021/05/01 06:06:30;;;;;;;23.73;21.33;;;;;;;;;;4950682;28;20038;-80
2021/05/01 06:08:58;;;;;;;23.65;21.23;;;;;;;;;;4968318;29;20055;-79
2021/05/01 06:11:24;;;;;;;24.70;22.15;;;;;;;;;;4965093;29;20027;-79
2021/05/01 06:13:51;;;;;;;23.83;21.42;;;;;;;;;;4963933;28;20043;-79
2021/05/01 06:16:19;;;;;;;27.58;24.77;;;;;;;;;;4964482;28;20559;-80
2021/05/01 06:18:46;;;;;;;25.58;22.88;;;;;;;;;;4966017;28;20023;-79
2021/05/01 06:21:12;;;;;;;22.95;20.67;;;;;;;;;;4966526;28;20042;-79
2021/05/01 06:23:40;;;;;;;25.05;22.52;;;;;;;;;;4970408;28;20023;-79
2021/05/01 06:26:07;;;;;;;24.27;21.65;;;;;;;;;;4968182;28;20023;-79
2021/05/01 06:28:33;;;;;;;23.92;21.52;;;;;;;;;;4973648;28;20030;-79
2021/05/01 06:31:04;;;;;;;23.83;21.33;;;;;;;;;;4971935;29;20054;-80
2021/05/01 06:33:31;;;;;;;28.55;25.52;;;;;;;;;;4961587;28;20067;-79
2021/05/01 06:35:58;;;;;;;26.35;23.75;;;;;;;;;;4973188;28;20447;-79
2021/05/01 06:38:28;;;;;;;25.77;23.17;;;;;;;;;;4958271;28;20086;-79
2021/05/01 06:40:58;;;;;;;27.30;24.42;;;;;;;;;;4968590;28;20065;-80
2021/05/01 06:43:57;;;;;;;25.73;23.13;;;;;;;;;;4938127;29;20031;-79
2021/05/01 06:46:25;;;;;;;25.95;23.02;;;;;;;;;;4937955;29;20039;-79
2021/05/01 06:48:54;;;;;;;27.80;23.50;;;;;;;;;;4956104;28;20051;-78
2021/05/01 06:51:20;;;;;;;25.08;22.48;;;;;;;;;;4945083;28;20029;-78
2021/05/01 06:53:46;;;;;;;24.55;22.10;;;;;;;;;;4934324;29;20035;-78
2021/05/01 06:56:24;;;;;;;24.83;22.23;;;;;;;;;;4966703;29;20029;-79
2021/05/01 06:58:50;;;;;;;23.58;21.27;;;;;;;;;;4936797;29;20050;-77
2021/05/01 07:01:16;;;;;;;24.55;21.95;;;;;;;;;;4956408;29;20042;-76
2021/05/01 07:03:44;;;;;;;24.52;22.02;;;;;;;;;;4944718;28;20039;-76
2021/05/01 07:06:13;;;;;;;23.73;21.33;;;;;;;;;;4941242;29;20038;-78
2021/05/01 07:08:40;;;;;;;25.15;22.58;;;;;;;;;;4967428;28;20065;-79
2021/05/01 07:11:07;;;;;;;24.33;21.65;;;;;;;;;;4964673;28;20027;-79
2021/05/01 07:13:33;;;;;;;23.98;21.48;;;;;;;;;;4949987;29;20469;-78
2021/05/01 07:16:03;;;;;;;21.90;19.55;;;;;;;;;;4946461;29;20055;-79
2021/05/01 07:18:29;;;;;;;20.02;18.02;;;;;;;;;;4950762;28;20035;-78
2021/05/01 07:21:01;;;;;;;18.58;16.85;;;;;;;;;;4959884;28;20031;-78
2021/05/01 07:23:27;;;;;;;19.20;17.20;;;;;;;;;;4955633;28;20511;-78
2021/05/01 07:25:53;;;;;;;19.67;17.73;;;;;;;;;;4946497;29;20027;-79
2021/05/01 07:28:25;;;;;;;19.05;17.25;;;;;;;;;;4963558;28;20023;-79
2021/05/01 07:30:55;;;;;;;19.48;17.60;;;;;;;;;;4942182;29;20043;-78
2021/05/01 07:33:24;;;;;;;20.20;18.17;;;;;;;;;;4956181;28;20403;-78
2021/05/01 07:35:53;;;;;;;20.20;18.10;;;;;;;;;;4948646;28;20068;-78
2021/05/01 07:38:20;;;;;;;22.38;20.17;;;;;;;;;;4934906;29;20130;-78
2021/05/01 07:40:47;;;;;;;24.52;21.92;;;;;;;;;;4938275;28;20034;-78
2021/05/01 07:43:15;;;;;;;24.85;21.42;;;;;;;;;;4939352;29;20035;-78
2021/05/01 07:45:41;;;;;;;22.45;20.05;;;;;;;;;;4945525;28;20443;-78
2021/05/01 07:48:09;;;;;;;23.98;21.67;;;;;;;;;;4960261;28;20066;-79
2021/05/01 07:50:36;;;;;;;21.92;19.73;;;;;;;;;;4958983;28;20475;-78
2021/05/01 07:53:02;;;;;;;23.00;20.02;;;;;;;;;;4959073;29;20391;-79
2021/05/01 07:55:28;;;;;;;20.40;18.30;;;;;;;;;;4959678;28;20035;-79
2021/05/01 07:57:59;;;;;;;21.20;18.88;;;;;;;;;;4970124;28;20063;-79
2021/05/01 08:00:45;;;;;;;18.63;16.73;;;;;;;;;;4972719;28;20031;-79
2021/05/01 08:03:11;;;;;;;17.58;15.88;;;;;;;;;;4947274;29;20043;-79
2021/05/01 08:05:38;;;;;;;19.17;17.17;;;;;;;;;;4970960;28;20028;-79
2021/05/01 08:08:04;;;;;;;16.85;15.15;;;;;;;;;;4953636;29;20098;-78
2021/05/01 08:21:00;;;;;;;18.55;16.65;;;;;;;;;;6053561;23;20116;-79
2021/05/01 08:23:32;;;;;;;16.58;14.98;;;;;;;;;;4980486;28;20070;-79
2021/05/01 08:25:57;;;;;;;17.80;15.98;;;;;;;;;;4992964;28;20033;-79
2021/05/01 08:28:23;;;;;;;15.55;13.95;;;;;;;;;;4974270;28;20027;-78
2021/05/01 08:30:49;;;;;;;16.20;14.50;;;;;;;;;;4988375;28;20090;-80
2021/05/01 08:33:14;;;;;;;16.63;15.02;;;;;;;;;;4987360;28;20030;-78
2021/05/01 08:35:40;;;;;;;14.45;13.13;;;;;;;;;;4962692;28;20058;-78
2021/05/01 08:38:05;;;;;;;22.05;19.63;;;;;;;;;;4976444;28;20031;-78
2021/05/01 08:40:32;;;;;;;17.10;15.40;;;;;;;;;;4975898;28;20046;-78
2021/05/01 08:42:58;;;;;;;20.23;18.10;;;;;;;;;;4988487;28;20022;-77
2021/05/01 08:45:27;;;;;;;18.48;16.63;;;;;;;;;;4996246;28;20080;-77
2021/05/01 08:47:53;;;;;;;16.85;15.15;;;;;;;;;;4968576;28;20038;-78
2021/05/01 08:50:30;;;;;;;15.60;14.10;;;;;;;;;;4977400;28;20125;-77
2021/05/01 08:52:58;;;;;;;15.80;14.27;;;;;;;;;;4994901;28;20161;-77
2021/05/01 08:55:26;;;;;;;15.38;13.95;;;;;;;;;;4994859;28;20160;-78
2021/05/01 08:57:52;;;;;;;16.13;14.52;;;;;;;;;;4984086;28;20041;-78
2021/05/01 09:00:18;;;;;;;17.05;15.45;;;;;;;;;;4978212;28;20447;-78
2021/05/01 09:02:43;;;;;;;16.10;14.50;;;;;;;;;;4979025;28;20038;-77
2021/05/01 09:05:11;;;;;;;15.60;14.10;;;;;;;;;;4974227;28;20026;-77
2021/05/01 09:07:43;;;;;;;14.25;12.75;;;;;;;;;;4981293;28;20541;-77
2021/05/01 09:10:09;;;;;;;15.13;13.63;;;;;;;;;;4978411;28;20030;-77
2021/05/01 09:12:42;;;;;;;14.48;13.10;;;;;;;;;;4957443;28;20439;-77
2021/05/01 09:15:10;;;;;;;19.13;17.33;;;;;;;;;;4973716;28;20060;-78
2021/05/01 09:17:36;;;;;;;15.00;13.55;;;;;;;;;;4957849;28;20034;-77
2021/05/01 09:20:17;;;;;;;13.48;12.23;;;;;;;;;;4977891;28;20033;-77
2021/05/01 09:22:52;;;;;;;13.50;12.20;;;;;;;;;;4980491;28;20046;-76
2021/05/01 09:29:17;;;;;;;14.32;12.88;;;;;;;;;;5000288;28;20126;-85
2021/05/01 09:37:16;;;;;;;12.85;11.55;;;;;;;;;;5790161;23;20055;-82
2021/05/01 09:39:56;;;;;;;12.95;11.75;;;;;;;;;;4974547;28;20019;-82
2021/05/01 09:42:23;;;;;;;12.40;11.23;;;;;;;;;;4974029;28;20042;-81
2021/05/01 09:45:26;;;;;;;12.63;11.52;;;;;;;;;;4975124;28;20055;-81
2021/05/01 09:47:53;;;;;;;13.52;12.13;;;;;;;;;;4896243;29;20055;-81
2021/05/01 09:50:19;;;;;;;11.32;10.30;;;;;;;;;;4881389;29;20071;-81
2021/05/01 09:53:08;;;;;;;11.60;10.52;;;;;;;;;;4897064;29;20141;-82
2021/05/01 09:55:41;;;;;;;12.45;11.35;;;;;;;;;;4897331;29;20113;-82
2021/05/01 09:58:19;;;;;;;11.20;10.20;;;;;;;;;;4896313;29;20033;-82
2021/05/01 10:00:54;;;;;;;11.43;10.35;;;;;;;;;;4881199;29;20033;-82
2021/05/01 10:04:13;;;;;;;13.60;12.30;;;;;;;;;;4896855;29;20049;-82
2021/05/01 10:07:09;;;;;;;12.23;11.02;;;;;;;;;;4896423;29;20025;-81
2021/05/01 10:09:37;;;;;;;12.00;10.88;;;;;;;;;;4896172;29;20088;-81
2021/05/01 10:12:15;;;;;;;13.18;11.93;;;;;;;;;;4896655;29;20060;-82
2021/05/01 10:15:17;;;;;;;12.73;11.50;;;;;;;;;;4897096;29;20056;-82
2021/05/01 10:17:48;;;;;;;12.38;11.18;;;;;;;;;;4830679;29;20084;-81
2021/05/01 10:20:21;;;;;;;12.43;11.23;;;;;;;;;;4810257;29;20118;-81
2021/05/01 10:23:04;;;;;;;12.00;10.90;;;;;;;;;;4896109;29;20087;-82
2021/05/01 10:25:37;;;;;;;12.60;11.45;;;;;;;;;;4915037;29;20028;-82
2021/05/01 10:28:33;;;;;;;12.32;11.15;;;;;;;;;;4895686;29;20602;-82
2021/05/01 10:31:10;;;;;;;13.15;11.85;;;;;;;;;;4867823;29;20042;-82
2021/05/01 10:34:03;;;;;;;12.07;10.95;;;;;;;;;;4861248;29;20042;-83
2021/05/01 10:36:34;;;;;;;12.10;11.00;;;;;;;;;;4886143;29;20033;-82
2021/05/01 10:39:22;;;;;;;13.02;11.02;;;;;;;;;;4856523;29;20079;-82
2021/05/01 10:42:06;;;;;;;11.88;10.77;;;;;;;;;;4841509;29;20046;-83
2021/05/01 10:44:55;;;;;;;11.25;10.15;;;;;;;;;;4846302;29;20037;-82
2021/05/01 10:47:35;;;;;;;14.60;13.30;;;;;;;;;;4878439;29;20474;-82
2021/05/01 10:50:38;;;;;;;12.23;11.07;;;;;;;;;;4847271;29;20026;-82
2021/05/01 10:53:06;;;;;;;10.13;9.23;;;;;;;;;;4817811;29;20054;-82
2021/05/01 10:56:15;;;;;;;10.35;9.35;;;;;;;;;;4860175;29;20046;-82
2021/05/01 10:58:52;;;;;;;10.35;9.45;;;;;;;;;;4840305;29;20070;-83
2021/05/01 11:01:43;;;;;;;10.80;9.73;;;;;;;;;;4855876;29;20062;-81
2021/05/01 11:04:10;;;;;;;11.45;10.45;;;;;;;;;;4859795;29;20086;-82
2021/05/01 11:06:45;;;;;;;12.52;11.38;;;;;;;;;;4852943;29;20396;-82
2021/05/01 11:09:37;;;;;;;12.02;10.93;;;;;;;;;;4850169;29;20038;-82
2021/05/01 11:12:11;;;;;;;11.45;10.43;;;;;;;;;;4845688;29;20098;-83
2021/05/01 11:15:11;;;;;;;10.35;9.35;;;;;;;;;;4867491;29;20083;-82
2021/05/01 11:18:22;;;;;;;10.27;9.27;;;;;;;;;;4866483;29;20030;-83
2021/05/01 11:20:53;;;;;;;9.98;9.07;;;;;;;;;;4841136;29;20049;-82
2021/05/01 11:24:07;;;;;;;9.30;8.50;;;;;;;;;;4861415;29;20057;-82
2021/05/01 11:30:43;;;;;;;9.73;8.82;;;;;;;;;;4949748;29;20055;-85
2021/05/01 11:40:34;;;;;;;8.52;7.75;;;;;;;;;;5276145;23;20082;-79
2021/05/01 11:43:02;;;;;;;10.32;7.30;;;;;;;;;;4959343;28;20399;-78
2021/05/01 11:45:38;;;;;;;8.68;7.88;;;;;;;;;;4973117;28;20035;-77
2021/05/01 11:48:09;;;;;;;9.23;8.35;;;;;;;;;;4979627;28;20034;-79
2021/05/01 11:50:39;;;;;;;8.05;7.25;;;;;;;;;;4974889;28;20499;-79
2021/05/01 11:53:35;;;;;;;11.15;10.05;;;;;;;;;;4974014;28;20105;-79
2021/05/01 11:56:37;;;;;;;7.40;6.80;;;;;;;;;;4983494;28;20514;-80
2021/05/01 11:59:19;;;;;;;10.75;9.65;;;;;;;;;;4959808;29;20130;-80
2021/05/01 12:02:01;;;;;;;7.35;6.75;;;;;;;;;;4936774;29;20436;-79
2021/05/01 12:04:58;;;;;;;7.78;7.07;;;;;;;;;;4945436;29;20516;-79
2021/05/01 12:07:36;;;;;;;7.78;7.07;;;;;;;;;;4935563;29;20092;-79
2021/05/01 12:10:07;;;;;;;8.35;7.55;;;;;;;;;;4941746;28;20039;-79
2021/05/01 12:12:37;;;;;;;7.80;7.10;;;;;;;;;;4933062;29;20024;-79
2021/05/01 12:15:09;;;;;;;9.02;8.23;;;;;;;;;;4946250;29;20027;-78
2021/05/01 12:17:37;;;;;;;11.70;10.57;;;;;;;;;;4942696;29;20040;-78
2021/05/01 12:20:09;;;;;;;8.98;8.18;;;;;;;;;;4943170;28;20051;-78
2021/05/01 12:22:35;;;;;;;8.50;7.78;;;;;;;;;;4933318;29;20098;-78
2021/05/01 12:25:01;;;;;;;8.27;6.93;;;;;;;;;;4931362;29;20512;-78
2021/05/01 12:27:50;;;;;;;8.52;7.50;;;;;;;;;;4930752;29;20028;-79
2021/05/01 12:30:40;;;;;;;7.97;7.28;;;;;;;;;;4935156;29;20036;-79
2021/05/01 12:33:22;;;;;;;8.05;7.25;;;;;;;;;;4939100;29;20064;-78
2021/05/01 12:35:48;;;;;;;8.05;7.35;;;;;;;;;;4949430;28;20542;-79
2021/05/01 12:38:15;;;;;;;7.25;6.65;;;;;;;;;;4968923;28;20424;-78
2021/05/01 12:40:40;;;;;;;8.45;7.65;;;;;;;;;;4961972;28;20051;-77
2021/05/01 12:43:29;;;;;;;7.60;7.00;;;;;;;;;;4950089;28;20046;-76
2021/05/01 12:45:56;;;;;;;8.15;7.45;;;;;;;;;;4941804;28;20035;-79
2021/05/01 12:48:51;;;;;;;9.13;8.23;;;;;;;;;;4952898;28;20030;-78
2021/05/01 12:51:36;;;;;;;7.40;6.60;;;;;;;;;;4947756;28;20388;-78
2021/05/01 12:54:58;;;;;;;7.22;6.63;;;;;;;;;;4938347;29;20490;-78
2021/05/01 12:57:32;;;;;;;10.05;8.45;;;;;;;;;;4925336;29;20037;-79
2021/05/01 12:59:57;;;;;;;9.10;7.57;;;;;;;;;;4930365;29;20039;-79
2021/05/01 13:02:24;;;;;;;10.38;9.30;;;;;;;;;;4925432;29;20036;-79
2021/05/01 13:05:11;;;;;;;7.47;6.78;;;;;;;;;;4922257;29;20024;-78
2021/05/01 13:07:46;;;;;;;6.90;6.20;;;;;;;;;;4916769;29;20052;-77
2021/05/01 13:10:14;;;;;;;7.85;7.05;;;;;;;;;;4913427;29;20028;-79
2021/05/01 13:12:52;;;;;;;8.45;7.65;;;;;;;;;;4924309;29;20173;-78
2021/05/01 13:15:18;;;;;;;12.80;11.50;;;;;;;;;;4915023;29;20509;-78
2021/05/01 13:17:43;;;;;;;6.97;6.38;;;;;;;;;;4914822;29;20063;-77
2021/05/01 13:30:31;;;;;;;4.32;4.03;;;;;;;;;;5899439;23;20349;-77
2021/05/01 13:33:02;;;;;;;9.75;7.32;;;;;;;;;;4943642;28;20039;-76
2021/05/01 13:35:29;;;;;;;5.70;5.18;;;;;;;;;;4934389;29;20071;-76
2021/05/01 13:37:54;;;;;;;5.20;4.70;;;;;;;;;;4929224;29;20113;-76
2021/05/01 13:40:29;;;;;;;6.57;5.97;;;;;;;;;;4950633;28;20548;-76
2021/05/01 13:43:06;;;;;;;7.93;6.78;;;;;;;;;;4951328;28;20034;-76
2021/05/01 13:45:40;;;;;;;6.28;5.68;;;;;;;;;;4959480;28;20035;-76
2021/05/01 13:48:06;;;;;;;6.45;5.75;;;;;;;;;;4962405;28;20062;-76
2021/05/01 13:50:32;;;;;;;4.60;4.20;;;;;;;;;;4962266;28;20030;-76
2021/05/01 13:53:04;;;;;;;11.75;7.75;;;;;;;;;;4965112;28;20126;-77
2021/05/01 13:55:33;;;;;;;5.40;4.90;;;;;;;;;;4959901;28;20031;-76
2021/05/01 13:58:04;;;;;;;4.30;4.00;;;;;;;;;;4961200;28;20042;-77
2021/05/01 14:00:47;;;;;;;3.97;3.67;;;;;;;;;;4957855;28;20043;-75
2021/05/01 14:03:17;;;;;;;4.38;3.80;;;;;;;;;;4964141;28;20034;-76
2021/05/01 14:05:47;;;;;;;7.32;5.70;;;;;;;;;;4940607;28;20031;-76
2021/05/01 14:08:13;;;;;;;14.27;9.13;;;;;;;;;;4954436;28;20110;-76
2021/05/01 14:10:39;;;;;;;8.57;6.32;;;;;;;;;;4953576;28;20110;-76
2021/05/01 14:13:21;;;;;;;4.32;2.92;;;;;;;;;;4954016;28;20023;-77
2021/05/01 14:15:48;;;;;;;14.32;8.70;;;;;;;;;;4951358;28;20027;-77
2021/05/01 14:18:17;;;;;;;4.88;3.83;;;;;;;;;;4933986;29;20035;-78
2021/05/01 14:20:48;;;;;;;6.32;5.00;;;;;;;;;;4954167;29;20043;-77
2021/05/01 14:23:14;;;;;;;12.00;8.02;;;;;;;;;;4953240;28;20414;-77
2021/05/01 14:25:42;;;;;;;11.02;6.18;;;;;;;;;;4953242;28;20122;-77
2021/05/01 14:28:19;;;;;;;4.88;4.10;;;;;;;;;;4953497;28;20125;-76
2021/05/01 14:33:30;;;;;;;4.47;3.92;;;;;;;;;;4957592;28;20027;-76
2021/05/01 14:35:59;;;;;;;4.95;4.50;;;;;;;;;;4965020;28;20113;-75
2021/05/01 14:38:26;;;;;;;5.18;4.68;;;;;;;;;;4970580;28;20027;-76
2021/05/01 14:40:52;;;;;;;4.85;4.38;;;;;;;;;;4965752;28;20121;-75
2021/05/01 14:43:25;;;;;;;5.07;4.57;;;;;;;;;;4952331;28;20484;-76
2021/05/01 14:45:51;;;;;;;3.85;3.45;;;;;;;;;;4962276;28;20031;-76
2021/05/01 14:48:17;;;;;;;3.72;3.35;;;;;;;;;;4960644;28;20151;-75
2021/05/01 14:50:44;;;;;;;4.00;3.60;;;;;;;;;;4948703;28;20106;-75
2021/05/01 14:53:10;;;;;;;3.30;3.10;;;;;;;;;;4956592;28;20027;-75
2021/05/01 14:55:36;;;;;;;3.45;3.15;;;;;;;;;;4955302;29;20030;-76
2021/05/01 14:58:02;;;;;;;3.30;3.00;;;;;;;;;;4955802;29;20507;-76
2021/05/01 15:00:28;;;;;;;3.95;3.65;;;;;;;;;;4956307;29;20027;-76
2021/05/01 15:02:53;;;;;;;4.30;3.90;;;;;;;;;;4957694;28;20110;-76
2021/05/01 15:05:20;;;;;;;4.15;3.75;;;;;;;;;;4955651;29;20086;-76
2021/05/01 15:07:53;;;;;;;3.45;3.15;;;;;;;;;;4955875;28;20031;-76
2021/05/01 15:10:21;;;;;;;6.38;5.78;;;;;;;;;;4959208;28;20042;-75
2021/05/01 15:13:07;;;;;;;4.28;3.95;;;;;;;;;;4957522;28;20027;-76
2021/05/01 15:15:39;;;;;;;4.50;4.10;;;;;;;;;;4937423;29;20035;-76
2021/05/01 15:18:13;;;;;;;4.53;4.13;;;;;;;;;;4955364;28;20073;-75
2021/05/01 15:20:44;;;;;;;5.88;5.28;;;;;;;;;;4957097;28;20059;-75
2021/05/01 15:23:09;;;;;;;6.97;6.25;;;;;;;;;;4938478;29;20027;-75
2021/05/01 15:25:36;;;;;;;5.55;4.95;;;;;;;;;;4939514;29;20547;-75
2021/05/01 15:28:01;;;;;;;5.90;5.30;;;;;;;;;;4955335;28;20031;-76
2021/05/01 15:30:29;;;;;;;4.80;4.40;;;;;;;;;;4939683;28;20055;-76
2021/05/01 15:32:57;;;;;;;7.90;7.10;;;;;;;;;;4937567;29;20043;-76
2021/05/01 15:35:23;;;;;;;5.55;5.03;;;;;;;;;;4955399;28;20102;-76
2021/05/01 15:37:51;;;;;;;5.95;5.35;;;;;;;;;;4936796;29;20439;-78
2021/05/01 15:40:17;;;;;;;6.07;5.47;;;;;;;;;;4956134;28;20037;-77
2021/05/01 15:42:43;;;;;;;6.00;4.78;;;;;;;;;;4955092;28;20047;-76